Time;durP1;ratioP1;P1;durP2;ratioP2;P2;SDS_P1;SDS_P2;PMS_P1;PMS_P2;Temp;Humidity;BMP_temperature;BMP_pressure;BME280_temperature;BME280_humidity;BME280_pressure;Samples;Min_cycle;Max_cycle;Signal;HPM_P1;HPM_P2
2023/05/15 00:01:07;;;;;;;24.20;18.70;;;;;;;;;;4990939;28;20070;-60
2023/05/15 00:03:33;;;;;;;25.42;17.92;;;;;;;;;;4989497;28;20112;-60
2023/05/15 00:05:59;;;;;;;29.70;18.27;;;;;;;;;;4989169;28;20042;-60
2023/05/15 00:08:26;;;;;;;28.35;19.38;;;;;;;;;;4991159;28;20492;-60
2023/05/15 00:10:52;;;;;;;27.80;20.05;;;;;;;;;;4990290;28;20073;-60
2023/05/15 00:13:18;;;;;;;28.10;19.15;;;;;;;;;;4985721;28;20061;-60
2023/05/15 00:15:44;;;;;;;27.95;19.70;;;;;;;;;;4990074;28;20117;-60
2023/05/15 00:18:10;;;;;;;29.67;20.55;;;;;;;;;;4991641;28;20496;-60
2023/05/15 00:20:36;;;;;;;30.25;19.73;;;;;;;;;;4990167;28;20049;-60
2023/05/15 00:23:02;;;;;;;30.33;19.38;;;;;;;;;;4988914;28;20038;-60
2023/05/15 00:25:28;;;;;;;28.13;19.60;;;;;;;;;;4990325;28;20042;-60
2023/05/15 00:27:54;;;;;;;26.63;19.13;;;;;;;;;;4986791;28;20515;-60
2023/05/15 00:30:20;;;;;;;28.90;19.67;;;;;;;;;;4992685;28;20050;-60
2023/05/15 00:32:46;;;;;;;28.92;19.98;;;;;;;;;;4991277;28;20030;-60
2023/05/15 00:35:13;;;;;;;28.35;19.48;;;;;;;;;;4989558;28;20045;-60
2023/05/15 00:37:39;;;;;;;27.30;19.95;;;;;;;;;;4988824;28;20080;-60
2023/05/15 00:40:05;;;;;;;28.83;21.58;;;;;;;;;;4987972;28;20046;-60
2023/05/15 00:42:31;;;;;;;31.13;20.52;;;;;;;;;;4989803;28;20045;-60
2023/05/15 00:44:57;;;;;;;28.10;19.70;;;;;;;;;;4989335;28;20073;-60
2023/05/15 00:47:24;;;;;;;30.33;21.75;;;;;;;;;;4990115;28;20064;-60
2023/05/15 00:49:51;;;;;;;29.95;21.33;;;;;;;;;;4986938;28;20043;-61
2023/05/15 00:52:18;;;;;;;33.15;21.42;;;;;;;;;;4988236;28;20081;-60
2023/05/15 00:54:44;;;;;;;29.65;20.70;;;;;;;;;;4992333;28;20093;-60
2023/05/15 00:57:11;;;;;;;29.42;20.75;;;;;;;;;;4992236;28;20042;-60
2023/05/15 00:59:39;;;;;;;29.92;21.20;;;;;;;;;;4993502;28;20084;-63
2023/05/15 01:02:05;;;;;;;33.10;20.98;;;;;;;;;;4992401;28;20041;-60
2023/05/15 01:04:31;;;;;;;32.03;21.90;;;;;;;;;;4994004;28;20093;-60
2023/05/15 01:06:57;;;;;;;30.45;21.27;;;;;;;;;;4992415;28;20117;-60
2023/05/15 01:09:24;;;;;;;34.15;22.83;;;;;;;;;;4992189;28;20121;-60
2023/05/15 01:11:52;;;;;;;33.65;23.70;;;;;;;;;;4992059;28;20046;-60
2023/05/15 01:14:19;;;;;;;32.42;22.45;;;;;;;;;;4993891;28;20138;-61
2023/05/15 01:16:45;;;;;;;30.65;21.75;;;;;;;;;;4993637;28;20046;-61
2023/05/15 01:19:11;;;;;;;32.95;21.42;;;;;;;;;;4991251;28;20034;-60
2023/05/15 01:21:37;;;;;;;33.15;22.80;;;;;;;;;;4993612;28;20038;-61
2023/05/15 01:24:03;;;;;;;36.65;24.35;;;;;;;;;;4988360;28;20042;-61
2023/05/15 01:26:39;;;;;;;37.25;24.95;;;;;;;;;;4992150;28;20185;-61
2023/05/15 01:29:08;;;;;;;43.50;27.25;;;;;;;;;;4991827;28;20057;-60
2023/05/15 01:31:35;;;;;;;41.35;28.20;;;;;;;;;;4990256;28;20048;-61
2023/05/15 01:34:02;;;;;;;36.35;24.90;;;;;;;;;;4993179;28;20077;-61
2023/05/15 01:36:42;;;;;;;33.67;23.42;;;;;;;;;;4993485;28;20050;-61
2023/05/15 01:39:10;;;;;;;36.05;23.25;;;;;;;;;;4992161;28;20042;-61
2023/05/15 01:41:41;;;;;;;32.92;21.75;;;;;;;;;;4992733;28;20046;-60
2023/05/15 01:44:21;;;;;;;30.83;21.10;;;;;;;;;;4991777;28;20104;-60
2023/05/15 01:46:50;;;;;;;28.38;19.40;;;;;;;;;;4989581;28;20407;-60
2023/05/15 01:49:17;;;;;;;30.67;19.60;;;;;;;;;;4996061;28;20043;-60
2023/05/15 01:51:44;;;;;;;27.65;19.75;;;;;;;;;;4991805;28;20050;-61
2023/05/15 01:54:12;;;;;;;31.77;20.38;;;;;;;;;;4991391;28;20050;-61
2023/05/15 01:56:40;;;;;;;30.80;18.75;;;;;;;;;;4991023;28;20042;-61
2023/05/15 01:59:06;;;;;;;28.85;18.55;;;;;;;;;;4992175;28;20125;-61
2023/05/15 02:01:33;;;;;;;26.85;19.00;;;;;;;;;;4995781;28;20050;-61
2023/05/15 02:04:01;;;;;;;26.95;18.58;;;;;;;;;;4992425;28;20460;-60
2023/05/15 02:06:27;;;;;;;28.25;19.77;;;;;;;;;;4991400;28;20042;-61
2023/05/15 02:08:54;;;;;;;26.95;19.10;;;;;;;;;;4988311;28;20046;-60
2023/05/15 02:11:20;;;;;;;25.00;18.85;;;;;;;;;;4998082;28;20042;-61
2023/05/15 02:13:47;;;;;;;28.63;19.17;;;;;;;;;;4991249;28;20070;-60
2023/05/15 02:16:13;;;;;;;27.98;19.20;;;;;;;;;;4975302;28;20042;-60
2023/05/15 02:18:40;;;;;;;33.53;20.33;;;;;;;;;;4987863;28;20043;-61
2023/05/15 02:21:06;;;;;;;29.60;18.50;;;;;;;;;;4988752;28;20492;-60
2023/05/15 02:23:32;;;;;;;28.05;18.75;;;;;;;;;;4988279;28;20042;-61
2023/05/15 02:26:06;;;;;;;26.40;17.38;;;;;;;;;;4988211;28;20117;-60
2023/05/15 02:28:47;;;;;;;25.75;17.85;;;;;;;;;;4988723;28;20054;-60
2023/05/15 02:31:40;;;;;;;26.77;18.27;;;;;;;;;;4986183;28;20070;-60
2023/05/15 02:34:29;;;;;;;26.90;17.92;;;;;;;;;;4988625;28;20133;-60
2023/05/15 02:36:57;;;;;;;26.13;18.73;;;;;;;;;;4983429;28;20531;-60
2023/05/15 02:39:23;;;;;;;27.67;19.52;;;;;;;;;;4993001;28;20050;-60
2023/05/15 02:41:51;;;;;;;26.25;17.05;;;;;;;;;;4988720;28;20471;-60
2023/05/15 02:44:17;;;;;;;28.98;20.27;;;;;;;;;;4998075;28;20056;-60
2023/05/15 02:46:44;;;;;;;27.92;19.33;;;;;;;;;;4989879;28;20484;-60
2023/05/15 02:49:11;;;;;;;27.15;19.90;;;;;;;;;;4991355;28;20145;-60
2023/05/15 02:51:37;;;;;;;32.40;21.75;;;;;;;;;;4988644;28;20400;-60
2023/05/15 02:54:03;;;;;;;32.75;22.35;;;;;;;;;;4987389;28;20555;-60
2023/05/15 02:56:29;;;;;;;33.60;21.17;;;;;;;;;;4994853;28;20556;-60
2023/05/15 02:58:55;;;;;;;28.10;20.25;;;;;;;;;;4989851;28;20038;-60
2023/05/15 03:01:22;;;;;;;30.20;20.88;;;;;;;;;;4991696;28;20166;-60
2023/05/15 03:03:48;;;;;;;28.98;20.33;;;;;;;;;;4989584;28;20034;-60
2023/05/15 03:06:14;;;;;;;33.78;21.92;;;;;;;;;;4991382;28;20381;-60
2023/05/15 03:08:40;;;;;;;32.80;21.13;;;;;;;;;;4988169;28;20057;-60
2023/05/15 03:11:06;;;;;;;29.73;19.90;;;;;;;;;;4991905;28;20034;-60
2023/05/15 03:13:32;;;;;;;33.95;22.02;;;;;;;;;;4989732;28;20032;-60
2023/05/15 03:15:58;;;;;;;34.28;23.08;;;;;;;;;;4989786;28;20377;-60
2023/05/15 03:18:24;;;;;;;31.27;23.00;;;;;;;;;;4990914;28;20037;-61
2023/05/15 03:20:51;;;;;;;34.25;21.77;;;;;;;;;;4990660;28;20159;-61
2023/05/15 03:23:18;;;;;;;33.50;21.90;;;;;;;;;;4999274;28;20033;-61
2023/05/15 03:25:44;;;;;;;32.25;22.33;;;;;;;;;;4988354;28;20052;-61
2023/05/15 03:28:10;;;;;;;30.98;22.08;;;;;;;;;;4989319;28;20404;-61
2023/05/15 03:30:36;;;;;;;28.55;20.92;;;;;;;;;;4989647;28;20043;-60
2023/05/15 03:33:02;;;;;;;32.58;20.92;;;;;;;;;;4990802;28;20034;-61
2023/05/15 03:35:29;;;;;;;33.47;21.50;;;;;;;;;;4989113;28;20574;-61
2023/05/15 03:37:55;;;;;;;31.90;21.50;;;;;;;;;;4985744;28;20034;-61
2023/05/15 03:40:21;;;;;;;32.92;22.73;;;;;;;;;;4986173;28;20492;-61
2023/05/15 03:42:47;;;;;;;30.98;21.20;;;;;;;;;;4986505;28;20046;-61
2023/05/15 03:45:13;;;;;;;32.65;22.10;;;;;;;;;;4989489;28;20097;-61
2023/05/15 03:47:41;;;;;;;32.97;22.38;;;;;;;;;;4989380;28;20038;-61
2023/05/15 03:50:07;;;;;;;38.75;23.92;;;;;;;;;;4990549;28;20500;-61
2023/05/15 03:52:33;;;;;;;33.30;22.58;;;;;;;;;;4989221;28;20535;-61
2023/05/15 03:55:01;;;;;;;33.80;19.67;;;;;;;;;;4990462;28;20050;-60
2023/05/15 03:57:27;;;;;;;32.03;20.65;;;;;;;;;;4989944;28;20154;-61
2023/05/15 03:59:53;;;;;;;34.45;21.88;;;;;;;;;;4988859;28;20085;-61
2023/05/15 04:02:19;;;;;;;31.88;20.58;;;;;;;;;;4990539;28;20046;-60
2023/05/15 04:04:45;;;;;;;31.77;21.67;;;;;;;;;;4988973;28;20100;-61
2023/05/15 04:07:11;;;;;;;34.90;22.27;;;;;;;;;;4990168;28;20070;-61
2023/05/15 04:09:37;;;;;;;35.17;22.63;;;;;;;;;;4986271;28;20400;-61
2023/05/15 04:12:03;;;;;;;34.92;23.27;;;;;;;;;;4989972;28;20121;-61
2023/05/15 04:14:29;;;;;;;36.53;23.13;;;;;;;;;;4988506;28;20109;-61
2023/05/15 04:16:55;;;;;;;34.97;22.05;;;;;;;;;;4990267;28;20119;-61
2023/05/15 04:19:22;;;;;;;33.30;23.27;;;;;;;;;;4997256;28;20054;-61
2023/05/15 04:21:48;;;;;;;35.60;22.73;;;;;;;;;;4997297;28;20520;-61
2023/05/15 04:24:14;;;;;;;34.78;23.15;;;;;;;;;;4989707;28;20038;-61
2023/05/15 04:26:41;;;;;;;33.97;23.00;;;;;;;;;;4988167;28;20381;-61
2023/05/15 04:29:08;;;;;;;38.50;25.17;;;;;;;;;;4989701;28;20044;-61
2023/05/15 04:31:34;;;;;;;33.40;22.65;;;;;;;;;;4987831;28;20101;-61
2023/05/15 04:34:00;;;;;;;39.50;22.08;;;;;;;;;;4985688;28;20042;-61
2023/05/15 04:36:27;;;;;;;31.33;22.77;;;;;;;;;;4987213;28;20042;-61
2023/05/15 04:38:53;;;;;;;31.75;21.77;;;;;;;;;;4986413;28;20050;-61
2023/05/15 04:41:19;;;;;;;31.48;22.33;;;;;;;;;;4988741;28;20109;-61
2023/05/15 04:43:45;;;;;;;32.45;22.50;;;;;;;;;;4987601;28;20046;-61
2023/05/15 04:46:11;;;;;;;32.95;22.33;;;;;;;;;;4998673;28;20034;-61
2023/05/15 04:48:37;;;;;;;32.97;22.38;;;;;;;;;;4993669;28;20039;-61
2023/05/15 04:51:03;;;;;;;33.53;22.13;;;;;;;;;;4985535;28;20497;-61
2023/05/15 04:53:29;;;;;;;32.78;22.40;;;;;;;;;;4986549;28;20042;-61
2023/05/15 04:55:55;;;;;;;34.97;21.77;;;;;;;;;;4989802;28;20038;-61
2023/05/15 04:58:22;;;;;;;29.83;21.98;;;;;;;;;;4977338;28;20531;-61
2023/05/15 05:00:48;;;;;;;32.50;22.40;;;;;;;;;;4982068;28;20062;-61
2023/05/15 05:03:14;;;;;;;26.63;19.38;;;;;;;;;;4974976;28;20043;-61
2023/05/15 05:05:40;;;;;;;27.00;19.40;;;;;;;;;;4983579;28;20132;-61
2023/05/15 05:08:06;;;;;;;28.83;21.67;;;;;;;;;;4983969;28;20056;-61
2023/05/15 05:10:32;;;;;;;29.27;20.65;;;;;;;;;;4989016;28;20043;-61
2023/05/15 05:12:58;;;;;;;27.33;18.85;;;;;;;;;;4985158;28;20050;-61
2023/05/15 05:15:24;;;;;;;28.63;20.27;;;;;;;;;;4989519;28;20034;-61
2023/05/15 05:17:50;;;;;;;30.77;20.60;;;;;;;;;;4983287;28;20038;-61
2023/05/15 05:20:16;;;;;;;26.67;19.55;;;;;;;;;;4986650;28;20045;-61
2023/05/15 05:22:42;;;;;;;26.88;19.38;;;;;;;;;;4981685;28;20385;-60
2023/05/15 05:25:09;;;;;;;30.15;20.77;;;;;;;;;;4986367;28;20138;-61
2023/05/15 05:27:35;;;;;;;29.25;20.10;;;;;;;;;;4988328;28;20090;-61
2023/05/15 05:30:01;;;;;;;27.52;20.02;;;;;;;;;;4984641;28;20116;-61
2023/05/15 05:32:27;;;;;;;26.45;19.33;;;;;;;;;;4984368;28;20043;-61
2023/05/15 05:34:53;;;;;;;26.42;20.55;;;;;;;;;;4990940;28;20053;-61
2023/05/15 05:37:19;;;;;;;27.02;19.92;;;;;;;;;;4987997;28;20077;-61
2023/05/15 05:39:45;;;;;;;24.88;19.45;;;;;;;;;;4990150;28;20046;-61
2023/05/15 05:42:11;;;;;;;29.55;19.25;;;;;;;;;;4993032;28;20035;-61
2023/05/15 05:44:37;;;;;;;26.42;19.52;;;;;;;;;;4992811;28;20034;-61
2023/05/15 05:47:04;;;;;;;27.60;20.00;;;;;;;;;;4993153;28;20584;-60
2023/05/15 05:49:30;;;;;;;27.50;19.95;;;;;;;;;;4991003;28;20061;-59
2023/05/15 05:51:56;;;;;;;24.73;19.00;;;;;;;;;;4988405;28;20069;-58
2023/05/15 05:54:22;;;;;;;29.65;20.65;;;;;;;;;;4993371;28;21537;-59
2023/05/15 05:56:48;;;;;;;28.50;20.50;;;;;;;;;;4985790;28;20096;-60
2023/05/15 05:59:15;;;;;;;29.30;20.30;;;;;;;;;;4992549;28;20049;-61
2023/05/15 06:01:41;;;;;;;26.38;19.42;;;;;;;;;;4992694;28;20415;-61
2023/05/15 06:04:07;;;;;;;19.83;15.52;;;;;;;;;;4991923;28;20046;-60
2023/05/15 06:06:33;;;;;;;17.77;13.73;;;;;;;;;;4992111;28;20117;-60
2023/05/15 06:08:59;;;;;;;20.38;14.93;;;;;;;;;;4991262;28;20045;-61
2023/05/15 06:11:26;;;;;;;19.38;15.25;;;;;;;;;;4992443;28;20037;-62
2023/05/15 06:13:52;;;;;;;19.98;14.52;;;;;;;;;;4989363;28;20030;-63
2023/05/15 06:16:18;;;;;;;18.65;14.07;;;;;;;;;;4989282;28;20042;-63
2023/05/15 06:18:44;;;;;;;18.60;13.75;;;;;;;;;;4991335;28;20093;-63
2023/05/15 06:21:10;;;;;;;18.38;13.75;;;;;;;;;;4992308;28;20046;-62
2023/05/15 06:23:36;;;;;;;19.30;15.82;;;;;;;;;;4991989;28;20050;-62
2023/05/15 06:26:03;;;;;;;21.63;17.60;;;;;;;;;;4992182;28;20515;-64
2023/05/15 06:28:29;;;;;;;19.90;15.27;;;;;;;;;;4991769;28;20051;-64
2023/05/15 06:30:55;;;;;;;20.02;15.88;;;;;;;;;;4992084;28;20053;-62
2023/05/15 06:33:21;;;;;;;16.20;13.15;;;;;;;;;;4991336;28;20114;-62
2023/05/15 06:35:47;;;;;;;15.55;12.95;;;;;;;;;;4991610;28;20404;-62
2023/05/15 06:38:13;;;;;;;17.98;12.95;;;;;;;;;;4991673;28;20073;-63
2023/05/15 06:40:39;;;;;;;13.90;11.52;;;;;;;;;;4988116;28;20046;-63
2023/05/15 06:43:05;;;;;;;16.13;12.57;;;;;;;;;;4986731;28;20102;-63
2023/05/15 06:45:31;;;;;;;14.60;11.38;;;;;;;;;;4990038;28;20042;-63
2023/05/15 06:47:57;;;;;;;16.33;12.30;;;;;;;;;;4989673;28;20047;-62
2023/05/15 06:50:23;;;;;;;16.75;12.85;;;;;;;;;;4989026;28;20046;-64
2023/05/15 06:52:50;;;;;;;14.63;11.45;;;;;;;;;;4990842;28;20121;-62
2023/05/15 06:55:16;;;;;;;15.07;12.15;;;;;;;;;;4990180;28;20512;-62
2023/05/15 06:57:42;;;;;;;16.65;12.38;;;;;;;;;;4988682;28;20161;-63
2023/05/15 07:00:08;;;;;;;18.88;13.35;;;;;;;;;;4980856;28;20137;-62
2023/05/15 07:02:35;;;;;;;16.45;12.65;;;;;;;;;;4983649;28;20226;-62
2023/05/15 07:05:01;;;;;;;15.93;12.15;;;;;;;;;;4981411;28;20176;-63
2023/05/15 07:07:27;;;;;;;16.77;13.23;;;;;;;;;;4986741;28;20096;-62
2023/05/15 07:09:53;;;;;;;16.63;13.48;;;;;;;;;;4986655;28;20042;-62
2023/05/15 07:12:19;;;;;;;19.42;15.10;;;;;;;;;;4991373;28;20038;-63
2023/05/15 07:14:45;;;;;;;15.18;13.10;;;;;;;;;;4990865;28;20134;-64
2023/05/15 07:17:11;;;;;;;15.13;12.45;;;;;;;;;;4986662;28;20034;-64
2023/05/15 07:19:37;;;;;;;14.98;11.57;;;;;;;;;;4997719;28;20045;-62
2023/05/15 07:22:03;;;;;;;17.70;12.48;;;;;;;;;;4989565;28;20459;-63
2023/05/15 07:24:30;;;;;;;16.20;13.18;;;;;;;;;;4990793;28;20109;-63
2023/05/15 07:26:56;;;;;;;17.15;13.80;;;;;;;;;;4989040;28;20049;-62
2023/05/15 07:29:22;;;;;;;16.95;13.75;;;;;;;;;;4973059;28;20051;-62
2023/05/15 07:31:48;;;;;;;20.67;14.20;;;;;;;;;;4988731;28;20042;-63
2023/05/15 07:34:14;;;;;;;18.05;13.35;;;;;;;;;;4990066;28;20093;-62
2023/05/15 07:36:40;;;;;;;17.63;13.52;;;;;;;;;;4989510;28;20042;-62
2023/05/15 07:39:06;;;;;;;20.70;14.50;;;;;;;;;;4988782;28;20035;-63
2023/05/15 07:41:32;;;;;;;18.23;13.25;;;;;;;;;;4990526;28;20042;-63
2023/05/15 07:43:58;;;;;;;17.30;12.15;;;;;;;;;;4987143;28;20064;-63
2023/05/15 07:46:24;;;;;;;16.80;13.40;;;;;;;;;;4990482;28;20042;-62
2023/05/15 07:48:50;;;;;;;17.73;13.23;;;;;;;;;;4993243;28;20121;-63
2023/05/15 07:51:17;;;;;;;16.63;12.75;;;;;;;;;;4990103;28;20079;-63
2023/05/15 07:53:43;;;;;;;20.85;14.18;;;;;;;;;;4989033;28;20117;-63
2023/05/15 07:56:09;;;;;;;17.98;13.10;;;;;;;;;;4990282;28;20038;-63
2023/05/15 07:58:37;;;;;;;19.25;14.13;;;;;;;;;;4988711;28;20034;-62
2023/05/15 08:01:03;;;;;;;16.02;13.10;;;;;;;;;;4987775;28;20046;-62
2023/05/15 08:03:29;;;;;;;14.80;11.95;;;;;;;;;;4985145;28;20041;-63
2023/05/15 08:05:55;;;;;;;16.25;13.15;;;;;;;;;;4982770;28;20034;-62
2023/05/15 08:08:21;;;;;;;17.38;12.23;;;;;;;;;;4982986;28;20034;-63
2023/05/15 08:10:47;;;;;;;15.43;12.52;;;;;;;;;;4989365;28;20459;-62
2023/05/15 08:13:13;;;;;;;18.10;13.68;;;;;;;;;;4985410;28;20400;-62
2023/05/15 08:15:40;;;;;;;15.80;11.40;;;;;;;;;;4970635;28;20519;-62
2023/05/15 08:18:11;;;;;;;14.65;10.23;;;;;;;;;;4984524;28;20102;-60
2023/05/15 08:20:38;;;;;;;13.65;10.23;;;;;;;;;;5003145;28;20477;-62
2023/05/15 08:23:05;;;;;;;13.70;11.50;;;;;;;;;;4983546;28;20484;-62
2023/05/15 08:25:31;;;;;;;14.35;11.40;;;;;;;;;;4988145;28;20046;-61
2023/05/15 08:27:58;;;;;;;15.75;12.88;;;;;;;;;;4989608;28;20062;-62
2023/05/15 08:30:28;;;;;;;16.38;11.35;;;;;;;;;;4986887;28;20061;-62
2023/05/15 08:32:57;;;;;;;12.60;10.90;;;;;;;;;;4989729;28;20039;-62
2023/05/15 08:35:24;;;;;;;13.57;10.68;;;;;;;;;;4990080;28;20035;-61
2023/05/15 08:37:53;;;;;;;15.32;10.93;;;;;;;;;;4989493;28;20034;-62
2023/05/15 08:40:22;;;;;;;15.43;11.18;;;;;;;;;;4984028;28;20043;-63
2023/05/15 08:42:54;;;;;;;14.73;10.63;;;;;;;;;;4987175;28;20597;-61
2023/05/15 08:45:20;;;;;;;12.93;10.50;;;15.40;99.90;;;;;;4968448;28;20050;-61
2023/05/15 08:47:47;;;;;;;13.05;10.30;;;;;;;;;;4985041;28;20034;-62
2023/05/15 08:50:17;;;;;;;12.63;10.30;;;;;;;;;;4983022;28;20043;-62
2023/05/15 08:52:50;;;;;;;13.32;9.88;;;;;;;;;;4989506;28;20081;-61
2023/05/15 08:55:20;;;;;;;15.57;9.98;;;;;;;;;;4987311;28;20042;-62
2023/05/15 08:57:48;;;;;;;13.68;10.10;;;;;;;;;;4984111;28;20395;-62
2023/05/15 09:00:15;;;;;;;16.08;10.38;;;;;;;;;;4984645;28;20073;-62
2023/05/15 09:02:43;;;;;;;15.65;10.30;;;;;;;;;;4989689;28;20558;-61
2023/05/15 09:05:10;;;;;;;14.43;9.38;;;;;;;;;;4990013;28;20038;-61
2023/05/15 09:07:42;;;;;;;15.73;9.43;;;;;;;;;;4989471;28;20118;-61
2023/05/15 09:10:10;;;;;;;11.23;8.70;;;;;;;;;;4990949;28;20046;-62
2023/05/15 09:12:37;;;;;;;12.85;10.68;;;;;;;;;;4988502;28;20532;-62
2023/05/15 09:15:16;;;;;;;13.35;10.52;;;;;;;;;;4993675;28;20113;-60
2023/05/15 09:17:43;;;;;;;14.25;11.13;;;;;;;;;;5003827;28;20050;-61
2023/05/15 09:20:27;;;;;;;14.25;10.75;;;;;;;;;;4993037;28;20042;-62
2023/05/15 09:22:56;;;;;;;15.48;11.93;;;;;;;;;;4993347;28;20465;-61
2023/05/15 09:25:54;;;;;;;13.45;11.75;;;;;;;;;;4993355;28;20400;-61
2023/05/15 09:28:32;;;;;;;16.45;12.00;;;;;;;;;;4984907;28;20455;-61
2023/05/15 09:31:03;;;;;;;16.23;12.02;;;;;;;;;;4984553;28;20082;-60
2023/05/15 09:33:44;;;;;;;17.95;12.60;;;;;;;;;;4993218;28;20042;-59
2023/05/15 09:36:10;;;;;;;12.90;11.00;;;;;;;;;;4993390;28;20117;-61
2023/05/15 09:38:41;;;;;;;15.80;11.38;;;;;;;;;;4993186;28;20045;-62
2023/05/15 09:41:08;;;;;;;17.98;12.50;;;;;;;;;;4991860;28;20476;-62
2023/05/15 09:43:37;;;;;;;14.20;11.73;;;;;;;;;;4992962;28;20068;-62
2023/05/15 09:46:07;;;;;;;17.27;12.90;;;;;;;;;;4993147;28;20050;-62
2023/05/15 09:48:35;;;;;;;18.20;12.75;;;;;;;;;;4991583;28;20057;-62
2023/05/15 09:51:04;;;;;;;15.70;12.02;;;;;;;;;;4991897;28;20064;-62
2023/05/15 09:53:38;;;;;;;13.48;10.80;;;;;;;;;;4991952;28;20073;-61
2023/05/15 09:56:07;;;;;;;13.13;10.10;;;;;;;;;;4985833;28;20092;-62
2023/05/15 09:58:35;;;;;;;12.85;10.70;;;;;;;;;;4984580;28;20564;-63
2023/05/15 10:01:05;;;;;;;12.23;9.18;;;;;;;;;;4992794;28;20444;-62
2023/05/15 10:03:34;;;;;;;10.38;8.32;;;;;;;;;;4992030;28;20074;-62
2023/05/15 10:06:02;;;;;;;12.25;8.45;;;;;;;;;;4989198;28;20066;-62
2023/05/15 10:08:28;;;;;;;13.98;9.98;;;15.70;53.50;;;;;;4972686;28;20043;-62
2023/05/15 10:10:57;;;;;;;15.20;9.65;;;;;;;;;;4986277;28;20038;-62
2023/05/15 10:13:24;;;;;;;13.73;9.40;;;;;;;;;;4986327;28;20034;-62
2023/05/15 10:15:53;;;;;;;11.38;8.63;;;;;;;;;;4991623;28;20092;-62
2023/05/15 10:18:23;;;;;;;13.80;9.27;;;;;;;;;;4987272;28;20038;-62
2023/05/15 10:20:53;;;;;;;12.02;8.57;;;;;;;;;;4985163;28;20504;-62
2023/05/15 10:23:22;;;;;;;11.77;8.00;;;;;;;;;;4985674;28;20133;-62
2023/05/15 10:25:58;;;;;;;10.63;7.25;;;;;;;;;;4992201;28;20098;-60
2023/05/15 10:28:27;;;;;;;11.45;7.50;;;;;;;;;;4990346;28;20042;-60
2023/05/15 10:30:54;;;;;;;10.57;7.97;;;;;;;;;;4991793;28;20505;-61
2023/05/15 10:33:20;;;;;;;10.95;7.43;;;;;;;;;;4992810;28;20551;-61
2023/05/15 10:35:50;;;;;;;11.05;7.93;;;;;;;;;;4991483;28;20476;-61
2023/05/15 10:38:17;;;;;;;13.82;7.93;;;;;;;;;;4991806;28;20519;-61
2023/05/15 10:40:47;;;;;;;13.10;8.93;;;;;;;;;;4992007;28;20056;-61
2023/05/15 10:43:14;;;;;;;14.50;8.60;;;;;;;;;;4992077;28;20034;-61
2023/05/15 10:45:43;;;;;;;10.50;7.57;;;;;;;;;;4990588;28;20052;-61
2023/05/15 10:48:11;;;;;;;11.18;7.80;;;;;;;;;;4991695;28;20109;-61
2023/05/15 10:50:37;;;;;;;10.60;6.90;;;;;;;;;;4992028;28;20045;-60
2023/05/15 10:53:05;;;;;;;12.38;7.25;;;;;;;;;;4991536;28;20500;-61
2023/05/15 10:55:32;;;;;;;9.77;7.32;;;;;;;;;;4992102;28;20093;-61
2023/05/15 10:57:59;;;;;;;9.10;6.80;;;;;;;;;;4990813;28;20043;-61
2023/05/15 11:00:30;;;;;;;9.52;7.07;;;;;;;;;;4991817;28;20047;-61
2023/05/15 11:02:57;;;;;;;9.23;6.75;;;;;;;;;;4991095;28;20050;-61
2023/05/15 11:05:28;;;;;;;9.57;7.38;;;;;;;;;;4991702;28;20046;-62
2023/05/15 11:08:14;;;;;;;10.00;7.60;;;;;;;;;;4991201;28;20488;-61
2023/05/15 11:10:41;;;;;;;9.40;7.53;;;;;;;;;;4988308;28;20082;-61
2023/05/15 11:13:12;;;;;;;9.80;7.05;;;;;;;;;;4991499;28;20046;-60
2023/05/15 11:15:42;;;;;;;11.27;7.93;;;;;;;;;;4991644;28;20125;-61
2023/05/15 11:18:10;;;;;;;11.50;7.63;;;;;;;;;;4991002;28;20407;-61
2023/05/15 11:20:53;;;;;;;11.35;7.53;;;;;;;;;;4990132;28;20050;-62
2023/05/15 11:23:27;;;;;;;10.32;7.93;;;;;;;;;;4985767;28;20135;-61
2023/05/15 11:26:00;;;;;;;11.65;8.45;;;;;;;;;;4991002;28;20046;-61
2023/05/15 11:28:27;;;;;;;12.52;8.50;;;;;;;;;;4989472;28;20133;-61
2023/05/15 11:31:02;;;;;;;10.65;8.45;;;;;;;;;;4995446;28;20046;-61
2023/05/15 11:33:34;;;;;;;12.07;9.57;;;;;;;;;;4990678;28;20548;-60
2023/05/15 11:36:00;;;;;;;12.95;9.63;;;;;;;;;;4988783;28;20044;-63
2023/05/15 11:38:27;;;;;;;12.52;9.52;;;;;;;;;;4996921;28;20030;-62
2023/05/15 11:41:02;;;;;;;12.60;9.63;;;;;;;;;;4990570;28;20085;-62
2023/05/15 11:43:30;;;;;;;12.48;10.18;;;;;;;;;;4990080;28;20133;-62
2023/05/15 11:46:02;;;;;;;12.95;10.15;;;;;;;;;;4988873;28;20046;-63
2023/05/15 11:48:36;;;;;;;12.85;10.02;;;;;;;;;;4990652;28;20046;-63
2023/05/15 11:51:04;;;;;;;12.82;10.25;;;;;;;;;;4998386;28;20042;-62
2023/05/15 11:53:31;;;;;;;14.57;11.43;;;;;;;;;;4990849;28;20412;-61
2023/05/15 11:55:58;;;;;;;13.00;10.27;;;;;;;;;;4990125;28;20569;-62
2023/05/15 11:58:26;;;;;;;13.30;10.45;;;;;;;;;;4989912;28;20093;-62
2023/05/15 12:00:55;;;;;;;14.15;9.38;;;;;;;;;;4990467;28;20054;-61
2023/05/15 12:03:25;;;;;;;15.18;11.25;;;;;;;;;;4990138;28;20117;-62
2023/05/15 12:05:56;;;;;;;15.10;12.15;;;;;;;;;;4987748;28;20042;-61
2023/05/15 12:08:26;;;;;;;17.83;11.68;;;;;;;;;;4998050;28;20053;-62
2023/05/15 12:10:52;;;;;;;16.70;11.05;;;;;;;;;;4990115;28;20046;-62
2023/05/15 12:13:21;;;;;;;14.40;10.35;;;;;;;;;;4988607;28;20046;-62
2023/05/15 12:15:50;;;;;;;15.23;11.05;;;;;;;;;;4990127;28;20038;-62
2023/05/15 12:18:21;;;;;;;13.93;10.48;;;;;;;;;;4990156;28;20044;-62
2023/05/15 12:20:50;;;;;;;14.05;8.88;;;;;;;;;;4988860;28;20042;-61
2023/05/15 12:23:20;;;;;;;12.65;9.75;;;;;;;;;;4990551;28;20500;-62
2023/05/15 12:25:50;;;;;;;11.27;8.55;;;;;;;;;;4987416;28;20234;-62
2023/05/15 12:28:17;;;;;;;12.75;9.93;;;;;;;;;;4989994;28;20038;-62
2023/05/15 12:30:43;;;;;;;13.27;9.18;;;;;;;;;;4989813;28;20042;-61
2023/05/15 12:33:10;;;;;;;12.88;9.63;;;;;;;;;;4989958;28;20043;-60
2023/05/15 12:35:38;;;;;;;12.95;8.98;;;;;;;;;;4989739;28;20042;-62
2023/05/15 12:38:05;;;;;;;12.20;9.18;;;;;;;;;;4995858;28;20038;-63
2023/05/15 12:40:37;;;;;;;12.13;9.20;;;;;;;;;;4990149;28;20101;-62
2023/05/15 12:43:09;;;;;;;11.38;8.70;;;;;;;;;;4989359;28;20034;-62
2023/05/15 12:45:41;;;;;;;13.60;8.95;;;;;;;;;;4989598;28;20538;-62
2023/05/15 12:48:08;;;;;;;12.35;8.77;;;;;;;;;;4987668;28;20093;-62
2023/05/15 12:50:35;;;;;;;12.95;9.48;;;;;;;;;;4992183;28;20129;-62
2023/05/15 12:53:04;;;;;;;14.02;9.57;;;;;;;;;;4995999;28;20057;-62
2023/05/15 12:55:36;;;;;;;12.85;8.82;;;;;;;;;;4993227;28;20124;-62
2023/05/15 12:58:09;;;;;;;11.27;7.93;;;;;;;;;;4993125;28;20181;-61
2023/05/15 13:00:39;;;;;;;12.57;8.30;;;;;;;;;;4994182;28;20093;-61
2023/05/15 13:03:09;;;;;;;10.95;7.60;;;;;;;;;;4993304;28;20034;-62
2023/05/15 13:05:39;;;;;;;10.13;6.88;;;;;;;;;;4994548;28;20129;-62
2023/05/15 13:08:06;;;;;;;10.02;7.32;;;;;;;;;;4992796;28;20038;-62
2023/05/15 13:10:34;;;;;;;10.45;6.63;;;;;;;;;;4994079;28;20057;-62
2023/05/15 13:13:03;;;;;;;9.98;7.47;;;;;;;;;;4993044;28;20508;-63
2023/05/15 13:15:34;;;;;;;9.63;6.95;;;;;;;;;;4975890;28;20129;-63
2023/05/15 13:18:05;;;;;;;10.38;7.28;;;;;;;;;;4993176;28;20042;-63
2023/05/15 13:20:33;;;;;;;10.13;7.40;;;;;;;;;;4993511;28;20121;-63
2023/05/15 13:23:00;;;;;;;10.60;6.80;;;;;;;;;;4993459;28;20511;-63
2023/05/15 13:25:28;;;;;;;10.10;7.43;;;;;;;;;;4993465;28;20038;-63
2023/05/15 13:28:00;;;;;;;12.20;7.65;;;;;;;;;;4988749;28;20039;-63
2023/05/15 13:30:28;;;;;;;10.55;6.60;;;;;;;;;;5000417;28;20045;-63
2023/05/15 13:32:57;;;;;;;10.70;6.97;;;;;;;;;;4987691;28;20296;-63
2023/05/15 13:35:31;;;;;;;9.75;6.78;;;;;;;;;;4991863;28;20038;-63
2023/05/15 13:38:00;;;;;;;10.60;7.38;;;;;;;;;;4991383;28;20225;-63
2023/05/15 13:40:32;;;;;;;11.05;7.57;;;;;;;;;;4981970;28;20121;-63
2023/05/15 13:42:59;;;;;;;12.02;8.07;;;;;;;;;;4992787;28;20143;-63
2023/05/15 13:45:28;;;;;;;11.80;7.82;;;;;;;;;;4992869;28;20057;-63
2023/05/15 13:47:55;;;;;;;10.93;8.27;;;;;;;;;;4992135;28;20117;-63
2023/05/15 13:50:24;;;;;;;12.70;8.98;;;;;;;;;;4992055;28;20125;-60
2023/05/15 13:52:53;;;;;;;11.10;8.45;;;;;;;;;;4992137;28;20117;-60
2023/05/15 13:55:20;;;;;;;12.50;9.13;;;;;;;;;;4992674;28;20046;-61
2023/05/15 13:57:46;;;;;;;11.82;8.27;;;;;;;;;;4992586;28;20047;-61
2023/05/15 14:00:16;;;;;;;10.57;8.10;;;;;;;;;;4992020;28;20037;-61
2023/05/15 14:02:43;;;;;;;10.75;7.47;;;17.10;1.00;;;;;;4992641;28;20109;-61
2023/05/15 14:05:10;;;;;;;10.07;7.32;;;;;;;;;;4992209;28;20045;-61
2023/05/15 14:07:39;;;;;;;10.57;7.47;;;;;;;;;;4974660;28;20081;-62
2023/05/15 14:10:11;;;;;;;11.77;8.25;;;;;;;;;;4974247;28;20192;-60
2023/05/15 14:12:38;;;;;;;15.82;8.55;;;;;;;;;;4992346;28;20125;-59
2023/05/15 14:15:06;;;;;;;12.30;7.72;;;;;;;;;;4992121;28;20042;-60
2023/05/15 14:17:37;;;;;;;11.63;8.05;;;;;;;;;;4990838;28;20049;-59
2023/05/15 14:20:11;;;;;;;9.48;6.55;;;;;;;;;;4991468;28;20038;-59
2023/05/15 14:22:41;;;;;;;11.00;7.80;;;;;;;;;;4990749;28;20054;-60
2023/05/15 14:25:09;;;;;;;11.30;7.70;;;;;;;;;;4990619;28;20827;-59